Time;durP1;ratioP1;P1;durP2;ratioP2;P2;SDS_P1;SDS_P2;PMS_P1;PMS_P2;Temp;Humidity;BMP_temperature;BMP_pressure;BME280_temperature;BME280_humidity;BME280_pressure;Samples;Min_cycle;Max_cycle;Signal;HPM_P1;HPM_P2
2022/11/10 00:05:09;;;;;;;9.25;2.67;;;10.60;99.90;;;;;;20812051;28;20571;-37
2022/11/10 00:25:31;;;;;;;5.22;1.65;;;10.40;99.90;;;;;;20818871;28;20496;-38
2022/11/10 00:35:32;;;;;;;5.05;1.98;;;10.30;99.90;;;;;;20816450;28;20166;-37
2022/11/10 00:45:33;;;;;;;2.22;0.90;;;10.30;99.90;;;;;;20812147;28;20033;-37
2022/11/10 00:55:37;;;;;;;2.88;1.42;;;10.40;99.90;;;;;;20814122;28;20052;-37
2022/11/10 01:05:38;;;;;;;3.33;1.67;;;10.50;99.90;;;;;;20801100;28;20816;-38
2022/11/10 01:15:41;;;;;;;6.00;1.50;;;10.50;99.90;;;;;;20814757;28;20397;-37
2022/11/10 01:25:42;;;;;;;6.13;2.60;;;10.40;99.90;;;;;;20789521;28;20696;-37
2022/11/10 01:35:44;;;;;;;16.17;3.10;;;10.40;99.90;;;;;;20799836;28;20587;-38
2022/11/10 01:45:59;;;;;;;4.45;1.60;;;10.40;99.90;;;;;;20809806;28;20351;-38
2022/11/10 01:56:02;;;;;;;6.80;1.73;;;10.40;99.90;;;;;;20806993;28;21069;-38
2022/11/10 02:06:04;;;;;;;3.65;1.73;;;10.30;99.90;;;;;;20817480;28;20065;-37
2022/11/10 02:16:05;;;;;;;11.00;3.05;;;10.30;99.90;;;;;;20802885;28;20048;-38
2022/11/10 02:26:06;;;;;;;4.47;1.60;;;10.30;99.90;;;;;;20798058;28;20077;-38
2022/11/10 02:36:08;;;;;;;7.90;1.98;;;10.20;99.90;;;;;;20794221;28;20110;-37
2022/11/10 02:46:09;;;;;;;10.48;3.55;;;10.20;99.90;;;;;;20784530;28;20056;-37
2022/11/10 02:56:10;;;;;;;9.95;2.83;;;10.20;99.90;;;;;;20791713;28;20247;-37
2022/11/10 03:06:11;;;;;;;7.28;2.40;;;10.10;99.90;;;;;;20787406;28;20132;-38
2022/11/10 03:16:12;;;;;;;4.22;1.70;;;10.10;99.90;;;;;;20779740;28;20045;-37
2022/11/10 03:26:13;;;;;;;5.72;1.77;;;9.90;99.90;;;;;;20777061;28;20048;-38
2022/11/10 03:36:14;;;;;;;8.13;2.40;;;9.90;99.90;;;;;;20787910;28;20045;-37
2022/11/10 03:46:16;;;;;;;5.13;1.75;;;9.80;99.90;;;;;;20797450;28;20042;-38
2022/11/10 03:56:17;;;;;;;4.60;2.38;;;9.80;99.90;;;;;;20787797;28;20053;-38
2022/11/10 04:16:38;;;;;;;8.57;2.22;;;9.70;99.90;;;;;;20786921;28;20590;-37
2022/11/10 04:26:41;;;;;;;6.45;2.33;;;9.60;99.90;;;;;;20791497;28;20037;-37
2022/11/10 04:36:43;;;;;;;7.65;2.45;;;9.60;99.90;;;;;;20774933;28;20233;-37
2022/11/10 04:46:44;;;;;;;6.53;2.65;;;9.60;99.90;;;;;;20781687;28;20564;-38
2022/11/10 04:56:45;;;;;;;9.23;3.00;;;9.60;99.90;;;;;;20782478;28;20099;-38
2022/11/10 05:06:46;;;;;;;12.02;3.67;;;9.60;99.90;;;;;;20787372;28;20144;-37
2022/11/10 05:16:47;;;;;;;5.30;2.63;;;9.60;99.90;;;;;;20772440;28;20045;-37
2022/11/10 05:26:48;;;;;;;4.53;1.77;;;9.60;99.90;;;;;;20744236;28;20037;-37
2022/11/10 05:36:49;;;;;;;6.38;2.03;;;9.60;99.90;;;;;;20773420;28;20048;-38
2022/11/10 05:46:50;;;;;;;4.90;2.50;;;9.50;99.90;;;;;;20761446;28;20336;-37
2022/11/10 05:56:51;;;;;;;6.10;1.90;;;9.50;99.90;;;;;;20753868;28;20481;-38
2022/11/10 06:06:52;;;;;;;12.07;2.38;;;9.50;99.90;;;;;;20775851;28;20125;-37
2022/11/10 06:16:53;;;;;;;3.67;2.13;;;9.50;99.90;;;;;;20749802;28;20042;-37
2022/11/10 06:26:54;;;;;;;4.20;1.65;;;9.60;99.90;;;;;;20758264;28;20240;-38
2022/11/10 06:36:55;;;;;;;7.00;2.60;;;9.50;99.90;;;;;;20774874;28;20064;-37
2022/11/10 06:46:56;;;;;;;11.32;2.35;;;9.50;99.90;;;;;;20747005;28;20103;-37
2022/11/10 06:56:57;;;;;;;14.07;4.10;;;9.60;99.90;;;;;;20763720;28;20096;-37
2022/11/10 07:06:58;;;;;;;8.23;3.38;;;9.60;99.90;;;;;;20744030;28;20155;-38
2022/11/10 07:16:59;;;;;;;10.18;2.85;;;9.60;99.90;;;;;;20792046;28;20033;-38
2022/11/10 07:27:00;;;;;;;5.70;2.72;;;9.60;99.90;;;;;;20784238;28;20153;-37
2022/11/10 07:37:01;;;;;;;6.03;2.35;;;9.70;99.90;;;;;;20788879;28;20045;-37
2022/11/10 07:47:02;;;;;;;7.43;2.28;;;9.70;99.90;;;;;;20807579;28;20489;-38
2022/11/10 07:57:03;;;;;;;19.73;2.15;;;9.80;99.90;;;;;;20819890;28;20122;-38
2022/11/10 08:07:04;;;;;;;8.82;2.45;;;9.90;99.90;;;;;;20825836;28;20045;-38
2022/11/10 08:17:05;;;;;;;8.70;2.47;;;10.10;99.90;;;;;;20825789;28;20048;-38
2022/11/10 08:27:06;;;;;;;7.43;2.38;;;10.40;99.90;;;;;;20819507;28;20073;-37
2022/11/10 08:37:07;;;;;;;3.67;1.75;;;10.80;99.90;;;;;;20822201;28;20045;-38
2022/11/10 08:47:08;;;;;;;10.80;2.25;;;11.20;99.90;;;;;;20822683;28;21742;-38
2022/11/10 08:57:09;;;;;;;3.58;1.30;;;11.30;99.90;;;;;;20809152;28;20056;-38
2022/11/10 09:07:10;;;;;;;10.52;2.83;;;11.50;99.90;;;;;;20745687;28;20458;-38
2022/11/10 09:17:12;;;;;;;6.53;2.13;;;11.60;99.90;;;;;;20800617;28;20488;-38
2022/11/10 09:27:13;;;;;;;5.53;2.42;;;11.90;99.90;;;;;;20812419;28;20524;-37
2022/11/10 09:37:14;;;;;;;4.75;1.58;;;12.30;99.90;;;;;;20826032;28;21496;-37
2022/11/10 09:47:21;;;;;;;6.90;2.28;;;12.70;99.90;;;;;;20796291;28;20045;-37
2022/11/10 09:57:24;;;;;;;2.73;0.87;;;13.20;99.90;;;;;;20799400;28;20201;-37
2022/11/10 10:07:55;;;;;;;7.13;1.38;;;13.30;99.90;;;;;;20795096;28;20049;-37
2022/11/10 10:18:15;;;;;;;3.72;1.45;;;13.40;99.90;;;;;;20795130;28;20772;-37
2022/11/10 10:28:40;;;;;;;2.58;1.10;;;13.70;99.90;;;;;;20799183;28;20076;-38
2022/11/10 10:38:43;;;;;;;7.90;1.85;;;14.10;99.90;;;;;;20816576;28;20937;-37
2022/11/10 10:48:44;;;;;;;3.03;1.30;;;14.60;99.90;;;;;;20808010;28;20088;-37
2022/11/10 10:58:52;;;;;;;7.28;2.15;;;14.60;99.90;;;;;;20824600;28;20037;-37
2022/11/10 11:09:05;;;;;;;;;;;14.20;99.90;;;;;;20805851;28;20102;-38
2022/11/10 11:19:08;;;;;;;3.17;1.20;;;14.10;99.90;;;;;;20820165;28;19925;-38
2022/11/10 11:29:46;;;;;;;2.50;0.70;;;14.00;99.90;;;;;;20806746;28;20084;-38
2022/11/10 11:39:59;;;;;;;2.38;1.00;;;14.10;99.90;;;;;;20796761;28;20772;-37
2022/11/10 11:50:21;;;;;;;4.70;1.98;;;14.10;99.90;;;;;;20799092;28;20582;-37
2022/11/10 12:00:22;;;;;;;8.40;1.73;;;14.20;99.90;;;;;;20793401;28;20073;-37
2022/11/10 12:10:39;;;;;;;6.13;1.67;;;14.20;99.90;;;;;;20778237;28;20252;-38
2022/11/10 12:21:04;;;;;;;3.03;0.90;;;14.20;99.90;;;;;;20806651;28;20825;-36
2022/11/10 12:31:14;;;;;;;5.22;1.60;;;14.20;99.90;;;;;;20805381;28;21936;-37
2022/11/10 12:41:18;;;;;;;2.55;1.13;;;14.10;99.90;;;;;;20818947;28;20125;-37
2022/11/10 12:51:42;;;;;;;3.33;1.30;;;14.20;99.90;;;;;;20801592;28;20103;-37
2022/11/10 13:01:44;;;;;;;2.17;1.00;;;14.20;99.90;;;;;;20817951;28;20812;-37
2022/11/10 13:12:14;;;;;;;4.00;1.90;;;14.10;99.90;;;;;;20800701;28;20091;-37
2022/11/10 13:22:38;;;;;;;4.22;1.60;;;14.10;99.90;;;;;;20824808;28;20033;-37
2022/11/10 13:32:39;;;;;;;4.15;1.63;;;14.20;99.90;;;;;;20819229;28;20257;-36
2022/11/10 13:42:40;;;;;;;2.90;1.45;;;14.40;99.90;;;;;;20807977;28;20460;-36
2022/11/10 13:52:55;;;;;;;1.83;0.73;;;14.40;99.90;;;;;;20820437;28;20041;-36
2022/11/10 14:02:56;;;;;;;3.83;0.77;;;14.40;99.90;;;;;;20826784;28;21010;-38
2022/11/10 14:13:04;;;;;;;2.13;0.70;;;14.40;99.90;;;;;;20819819;28;20070;-38
2022/11/10 14:23:14;;;;;;;3.97;1.08;;;14.30;99.90;;;;;;20818936;28;20055;-37
2022/11/10 14:33:15;;;;;;;4.95;1.60;;;14.40;99.90;;;;;;20809555;28;20058;-37
2022/11/10 14:43:27;;;;;;;3.33;1.27;;;14.40;99.90;;;;;;20807908;28;20440;-37
2022/11/10 14:53:32;;;;;;;6.50;1.83;;;14.30;99.90;;;;;;20795256;28;20103;-37
2022/11/10 15:03:39;;;;;;;2.63;0.80;;;14.30;99.90;;;;;;20839483;28;20436;-37
2022/11/10 15:13:40;;;;;;;1.88;0.70;;;14.30;99.90;;;;;;20789671;28;21866;-37
2022/11/10 15:23:42;;;;;;;4.80;2.05;;;14.20;99.90;;;;;;20840729;28;20037;-37
2022/11/10 15:33:47;;;;;;;1.73;0.63;;;14.10;99.90;;;;;;20829474;28;20827;-37
2022/11/10 15:43:48;;;;;;;3.25;1.00;;;13.80;99.90;;;;;;20858147;28;20080;-37
2022/11/10 15:53:50;;;;;;;1.02;0.40;;;13.70;99.90;;;;;;20810124;28;20044;-37
2022/11/10 16:03:51;;;;;;;5.43;1.08;;;13.60;99.90;;;;;;20789274;28;20195;-37
2022/11/10 16:13:54;;;;;;;2.70;1.00;;;13.60;99.90;;;;;;20805775;28;20046;-37
2022/11/10 16:23:54;;;;;;;4.63;0.98;;;13.40;99.90;;;;;;20821260;28;20460;-37
2022/11/10 16:33:55;;;;;;;4.10;1.80;;;13.50;99.90;;;;;;20804250;28;20050;-37
2022/11/10 16:43:56;;;;;;;2.85;1.02;;;13.50;99.90;;;;;;20783585;28;20412;-37
2022/11/10 16:54:00;;;;;;;5.85;1.40;;;13.50;99.90;;;;;;20802753;28;20037;-38
2022/11/10 17:04:06;;;;;;;1.73;0.77;;;13.40;99.90;;;;;;20805352;28;20120;-37
2022/11/10 17:14:10;;;;;;;0.77;0.40;;;13.50;99.90;;;;;;20802009;28;20444;-38
2022/11/10 17:24:13;;;;;;;1.48;0.60;;;13.40;99.90;;;;;;20793858;28;20068;-37
2022/11/10 17:34:14;;;;;;;2.20;0.38;;;13.30;99.90;;;;;;20817012;28;20041;-37
2022/11/10 17:44:16;;;;;;;1.50;0.50;;;13.20;99.90;;;;;;20836524;28;20499;-37
2022/11/10 17:54:17;;;;;;;3.10;1.05;;;13.10;99.90;;;;;;20789701;28;20068;-37
2022/11/10 18:04:18;;;;;;;3.08;1.75;;;12.90;99.90;;;;;;20746138;28;20063;-37
2022/11/10 18:14:19;;;;;;;2.45;0.70;;;12.70;99.90;;;;;;20773642;28;20170;-37
2022/11/10 18:24:20;;;;;;;1.35;0.70;;;12.60;99.90;;;;;;20780650;28;20037;-38
2022/11/10 18:34:21;;;;;;;2.00;0.60;;;12.50;99.90;;;;;;20774020;28;20454;-38
2022/11/10 18:44:22;;;;;;;1.60;0.60;;;12.30;99.90;;;;;;20782885;28;20390;-38
2022/11/10 18:54:24;;;;;;;2.80;1.52;;;12.20;99.90;;;;;;20783903;28;20247;-38
2022/11/10 19:04:25;;;;;;;1.98;0.80;;;12.00;99.90;;;;;;20771161;28;20647;-37
2022/11/10 19:14:26;;;;;;;2.72;1.30;;;12.00;99.90;;;;;;20809992;28;20041;-37
2022/11/10 19:24:27;;;;;;;2.53;0.80;;;11.80;99.90;;;;;;20797489;28;20053;-38
2022/11/10 19:34:30;;;;;;;2.45;1.25;;;11.80;99.90;;;;;;20776593;28;20617;-38
2022/11/10 19:44:31;;;;;;;2.80;0.80;;;11.80;99.90;;;;;;20792877;28;20377;-38
2022/11/10 19:54:32;;;;;;;4.47;1.17;;;11.70;99.90;;;;;;20786163;28;20116;-38
2022/11/10 20:05:11;;;;;;;2.75;1.67;;;11.70;99.90;;;;;;20747056;28;20118;-37
2022/11/10 20:14:54;;;;;;;3.28;1.40;;;11.60;99.90;;;;;;20774243;28;20944;-38
2022/11/10 20:24:55;;;;;;;3.38;0.90;;;11.70;99.90;;;;;;20808791;28;20060;-37
2022/11/10 20:34:56;;;;;;;3.00;1.08;;;11.50;99.90;;;;;;20803014;28;20126;-37
2022/11/10 20:44:57;;;;;;;2.53;1.27;;;11.40;99.90;;;;;;20818843;28;20060;-38
2022/11/10 20:55:00;;;;;;;5.20;1.40;;;11.30;99.90;;;;;;20813946;28;20053;-38
2022/11/10 21:05:01;;;;;;;3.45;1.52;;;11.30;99.90;;;;;;20801250;28;20206;-38
2022/11/10 21:15:02;;;;;;;5.20;2.25;;;11.40;99.90;;;;;;20816251;28;20059;-38
2022/11/10 21:25:04;;;;;;;7.07;1.95;;;11.50;99.90;;;;;;20802749;28;20683;-38
2022/11/10 21:35:06;;;;;;;4.45;1.90;;;11.50;99.90;;;;;;20813468;28;20064;-38
2022/11/10 21:45:08;;;;;;;4.38;2.58;;;11.50;99.90;;;;;;20804733;28;20124;-39
2022/11/10 21:55:09;;;;;;;2.88;1.60;;;11.60;99.90;;;;;;20815990;28;20790;-38
2022/11/10 22:05:10;;;;;;;3.67;1.88;;;11.50;99.90;;;;;;20824629;28;20049;-38
2022/11/10 22:25:33;;;;;;;4.40;2.38;;;11.40;99.90;;;;;;20830355;28;20421;-38
2022/11/10 22:35:43;;;;;;;6.28;3.22;;;11.40;99.90;;;;;;20811944;28;20041;-38
2022/11/10 22:45:44;;;;;;;9.35;3.05;;;11.30;99.90;;;;;;20795245;28;21050;-38
2022/11/10 22:55:45;;;;;;;8.23;2.08;;;11.40;99.90;;;;;;20806312;28;20488;-38
2022/11/10 23:05:49;;;;;;;4.53;1.70;;;11.50;99.90;;;;;;20812281;28;20049;-37
2022/11/10 23:15:53;;;;;;;4.68;2.05;;;11.40;99.90;;;;;;20809484;28;20376;-37
2022/11/10 23:25:56;;;;;;;4.88;1.80;;;11.40;99.90;;;;;;20796875;28;20077;-37
2022/11/10 23:35:57;;;;;;;5.50;2.10;;;11.30;99.90;;;;;;20800494;28;20540;-37
2022/11/10 23:45:58;;;;;;;5.55;1.90;;;11.40;99.90;;;;;;20811330;28;20075;-37
2022/11/10 23:56:02;;;;;;;5.65;3.17;;;11.30;99.90;;;;;;20812854;28;20068;-38
